sensor_id;sensor_type;location;lat;lon;timestamp;temperature;humidity
34829;DHT22;21042;47.620;12.188;2023-04-24T00:02:20;10.20;99.90
34829;DHT22;21042;47.620;12.188;2023-04-24T00:04:46;10.20;99.90
34829;DHT22;21042;47.620;12.188;2023-04-24T00:07:13;10.20;99.90
34829;DHT22;21042;47.620;12.188;2023-04-24T00:09:40;10.10;99.90
34829;DHT22;21042;47.620;12.188;2023-04-24T00:12:08;10.10;99.90
34829;DHT22;21042;47.620;12.188;2023-04-24T00:14:35;10.10;99.90
34829;DHT22;21042;47.620;12.188;2023-04-24T00:17:02;10.10;99.90
34829;DHT22;21042;47.620;12.188;2023-04-24T00:19:29;10.10;99.90
34829;DHT22;21042;47.620;12.188;2023-04-24T00:21:55;10.10;99.90
34829;DHT22;21042;47.620;12.188;2023-04-24T00:24:22;10.10;99.90
34829;DHT22;21042;47.620;12.188;2023-04-24T00:26:49;10.10;99.90
34829;DHT22;21042;47.620;12.188;2023-04-24T00:29:16;10.10;99.90
34829;DHT22;21042;47.620;12.188;2023-04-24T00:31:42;10.10;99.90
34829;DHT22;21042;47.620;12.188;2023-04-24T00:34:09;10.10;99.90
34829;DHT22;21042;47.620;12.188;2023-04-24T00:36:38;10.10;99.90
34829;DHT22;21042;47.620;12.188;2023-04-24T00:39:05;10.10;99.90
34829;DHT22;21042;47.620;12.188;2023-04-24T00:41:31;10.10;99.90
34829;DHT22;21042;47.620;12.188;2023-04-24T00:43:58;10.10;99.90
34829;DHT22;21042;47.620;12.188;2023-04-24T00:46:25;10.10;99.90
34829;DHT22;21042;47.620;12.188;2023-04-24T00:48:52;10.10;99.90
34829;DHT22;21042;47.620;12.188;2023-04-24T00:51:19;10.10;99.90
34829;DHT22;21042;47.620;12.188;2023-04-24T00:53:46;10.10;99.90
34829;DHT22;21042;47.620;12.188;2023-04-24T00:56:13;10.20;99.90
34829;DHT22;21042;47.620;12.188;2023-04-24T00:58:40;10.20;99.90
34829;DHT22;21042;47.620;12.188;2023-04-24T01:01:09;10.20;99.90
34829;DHT22;21042;47.620;12.188;2023-04-24T01:03:36;10.20;99.90
34829;DHT22;21042;47.620;12.188;2023-04-24T01:06:05;10.10;99.90
34829;DHT22;21042;47.620;12.188;2023-04-24T01:08:32;10.10;99.90
34829;DHT22;21042;47.620;12.188;2023-04-24T01:11:03;10.00;99.90
34829;DHT22;21042;47.620;12.188;2023-04-24T01:13:31;10.00;99.90
34829;DHT22;21042;47.620;12.188;2023-04-24T01:15:58;10.00;99.90
34829;DHT22;21042;47.620;12.188;2023-04-24T01:18:26;10.00;99.90
34829;DHT22;21042;47.620;12.188;2023-04-24T01:20:57;9.90;99.90
34829;DHT22;21042;47.620;12.188;2023-04-24T01:23:25;9.90;99.90
34829;DHT22;21042;47.620;12.188;2023-04-24T01:25:52;9.90;99.90
34829;DHT22;21042;47.620;12.188;2023-04-24T01:28:19;10.00;99.90
34829;DHT22;21042;47.620;12.188;2023-04-24T01:30:46;10.00;99.90
34829;DHT22;21042;47.620;12.188;2023-04-24T01:33:13;10.10;99.90
34829;DHT22;21042;47.620;12.188;2023-04-24T01:35:40;10.10;99.90
34829;DHT22;21042;47.620;12.188;2023-04-24T01:38:07;10.10;99.90
34829;DHT22;21042;47.620;12.188;2023-04-24T01:40:35;10.10;99.90
34829;DHT22;21042;47.620;12.188;2023-04-24T01:43:02;10.10;99.90
34829;DHT22;21042;47.620;12.188;2023-04-24T01:45:29;10.10;99.90
34829;DHT22;21042;47.620;12.188;2023-04-24T01:47:56;10.00;99.90
34829;DHT22;21042;47.620;12.188;2023-04-24T01:50:23;10.00;99.90
34829;DHT22;21042;47.620;12.188;2023-04-24T01:52:50;10.00;99.90
34829;DHT22;21042;47.620;12.188;2023-04-24T01:55:17;10.00;99.90
34829;DHT22;21042;47.620;12.188;2023-04-24T01:57:44;10.00;99.90
34829;DHT22;21042;47.620;12.188;2023-04-24T02:00:11;10.00;99.90
34829;DHT22;21042;47.620;12.188;2023-04-24T02:02:41;10.00;99.90
34829;DHT22;21042;47.620;12.188;2023-04-24T02:05:12;10.00;99.90
34829;DHT22;21042;47.620;12.188;2023-04-24T02:07:39;10.00;99.90
34829;DHT22;21042;47.620;12.188;2023-04-24T02:10:07;10.00;99.90
34829;DHT22;21042;47.620;12.188;2023-04-24T02:12:34;10.00;99.90
34829;DHT22;21042;47.620;12.188;2023-04-24T02:15:01;9.90;99.90
34829;DHT22;21042;47.620;12.188;2023-04-24T02:17:27;9.90;99.90
34829;DHT22;21042;47.620;12.188;2023-04-24T02:19:56;9.90;99.90
34829;DHT22;21042;47.620;12.188;2023-04-24T02:22:23;9.90;99.90
34829;DHT22;21042;47.620;12.188;2023-04-24T02:24:49;9.80;99.90
34829;DHT22;21042;47.620;12.188;2023-04-24T02:27:16;9.80;99.90
34829;DHT22;21042;47.620;12.188;2023-04-24T02:29:43;9.80;99.90
34829;DHT22;21042;47.620;12.188;2023-04-24T02:32:10;9.80;99.90
34829;DHT22;21042;47.620;12.188;2023-04-24T02:34:38;9.80;99.90
34829;DHT22;21042;47.620;12.188;2023-04-24T02:37:05;9.80;99.90
34829;DHT22;21042;47.620;12.188;2023-04-24T02:39:32;9.90;99.90
34829;DHT22;21042;47.620;12.188;2023-04-24T02:41:58;9.80;99.90
34829;DHT22;21042;47.620;12.188;2023-04-24T02:44:25;10.20;99.90
34829;DHT22;21042;47.620;12.188;2023-04-24T02:46:52;9.70;99.90
34829;DHT22;21042;47.620;12.188;2023-04-24T02:49:18;9.60;99.90
34829;DHT22;21042;47.620;12.188;2023-04-24T02:51:45;9.60;99.90
34829;DHT22;21042;47.620;12.188;2023-04-24T02:54:12;9.60;99.90
34829;DHT22;21042;47.620;12.188;2023-04-24T02:56:39;9.60;99.90
34829;DHT22;21042;47.620;12.188;2023-04-24T02:59:07;9.60;99.90
34829;DHT22;21042;47.620;12.188;2023-04-24T03:01:34;9.60;99.90
34829;DHT22;21042;47.620;12.188;2023-04-24T03:04:02;9.60;99.90
34829;DHT22;21042;47.620;12.188;2023-04-24T03:06:29;9.70;99.90
34829;DHT22;21042;47.620;12.188;2023-04-24T03:08:57;9.70;99.90
34829;DHT22;21042;47.620;12.188;2023-04-24T03:11:25;9.70;99.90
34829;DHT22;21042;47.620;12.188;2023-04-24T03:13:51;9.70;99.90
34829;DHT22;21042;47.620;12.188;2023-04-24T03:16:19;9.70;99.90
34829;DHT22;21042;47.620;12.188;2023-04-24T03:18:46;9.70;99.90
34829;DHT22;21042;47.620;12.188;2023-04-24T03:21:13;9.60;99.90
34829;DHT22;21042;47.620;12.188;2023-04-24T03:23:44;9.60;99.90
34829;DHT22;21042;47.620;12.188;2023-04-24T03:26:11;9.60;99.90
34829;DHT22;21042;47.620;12.188;2023-04-24T03:28:48;9.60;99.90
34829;DHT22;21042;47.620;12.188;2023-04-24T03:31:15;9.70;99.90
34829;DHT22;21042;47.620;12.188;2023-04-24T03:33:43;9.70;99.90
34829;DHT22;21042;47.620;12.188;2023-04-24T03:36:10;9.70;99.90
34829;DHT22;21042;47.620;12.188;2023-04-24T03:38:39;9.70;99.90
34829;DHT22;21042;47.620;12.188;2023-04-24T03:41:38;9.70;99.90
34829;DHT22;21042;47.620;12.188;2023-04-24T03:44:12;9.70;99.90
34829;DHT22;21042;47.620;12.188;2023-04-24T03:46:40;9.70;99.90
34829;DHT22;21042;47.620;12.188;2023-04-24T03:49:06;9.70;99.90
34829;DHT22;21042;47.620;12.188;2023-04-24T03:51:37;9.70;99.90
34829;DHT22;21042;47.620;12.188;2023-04-24T03:54:20;9.60;99.90
34829;DHT22;21042;47.620;12.188;2023-04-24T03:56:48;9.60;99.90
34829;DHT22;21042;47.620;12.188;2023-04-24T03:59:15;9.50;99.90
34829;DHT22;21042;47.620;12.188;2023-04-24T04:01:47;9.50;99.90
34829;DHT22;21042;47.620;12.188;2023-04-24T04:04:15;9.40;99.90
34829;DHT22;21042;47.620;12.188;2023-04-24T04:06:44;9.40;99.90
34829;DHT22;21042;47.620;12.188;2023-04-24T04:09:39;9.30;99.90
34829;DHT22;21042;47.620;12.188;2023-04-24T04:12:06;9.40;99.90
34829;DHT22;21042;47.620;12.188;2023-04-24T04:14:34;9.20;99.90
34829;DHT22;21042;47.620;12.188;2023-04-24T04:17:01;9.10;99.90
34829;DHT22;21042;47.620;12.188;2023-04-24T04:19:28;9.10;99.90
34829;DHT22;21042;47.620;12.188;2023-04-24T04:21:55;9.10;99.90
34829;DHT22;21042;47.620;12.188;2023-04-24T04:24:34;9.00;99.90
34829;DHT22;21042;47.620;12.188;2023-04-24T04:27:04;9.00;99.90
34829;DHT22;21042;47.620;12.188;2023-04-24T04:29:38;9.00;99.90
34829;DHT22;21042;47.620;12.188;2023-04-24T04:32:09;9.00;99.90
34829;DHT22;21042;47.620;12.188;2023-04-24T04:34:36;8.90;99.90
34829;DHT22;21042;47.620;12.188;2023-04-24T04:37:06;9.00;99.90
34829;DHT22;21042;47.620;12.188;2023-04-24T04:39:59;8.90;99.90
34829;DHT22;21042;47.620;12.188;2023-04-24T04:42:32;9.00;99.90
34829;DHT22;21042;47.620;12.188;2023-04-24T04:45:00;9.00;99.90
34829;DHT22;21042;47.620;12.188;2023-04-24T04:47:37;9.00;99.90
34829;DHT22;21042;47.620;12.188;2023-04-24T04:50:05;9.00;99.90
34829;DHT22;21042;47.620;12.188;2023-04-24T04:52:32;9.00;99.90
34829;DHT22;21042;47.620;12.188;2023-04-24T04:55:10;9.00;99.90
34829;DHT22;21042;47.620;12.188;2023-04-24T04:57:59;8.90;99.90
34829;DHT22;21042;47.620;12.188;2023-04-24T05:00:27;9.00;99.90
34829;DHT22;21042;47.620;12.188;2023-04-24T05:02:55;9.00;99.90
34829;DHT22;21042;47.620;12.188;2023-04-24T05:05:39;9.00;99.90
34829;DHT22;21042;47.620;12.188;2023-04-24T05:08:10;9.00;99.90
34829;DHT22;21042;47.620;12.188;2023-04-24T05:10:52;9.00;99.90
34829;DHT22;21042;47.620;12.188;2023-04-24T05:13:19;9.00;99.90
34829;DHT22;21042;47.620;12.188;2023-04-24T05:16:03;9.00;99.90
34829;DHT22;21042;47.620;12.188;2023-04-24T05:18:30;8.90;99.90
34829;DHT22;21042;47.620;12.188;2023-04-24T05:20:57;8.90;99.90
34829;DHT22;21042;47.620;12.188;2023-04-24T05:24:03;8.90;99.90
34829;DHT22;21042;47.620;12.188;2023-04-24T05:27:05;8.90;99.90
34829;DHT22;21042;47.620;12.188;2023-04-24T05:29:37;9.00;99.90
34829;DHT22;21042;47.620;12.188;2023-04-24T05:32:04;9.00;99.90
34829;DHT22;21042;47.620;12.188;2023-04-24T05:34:31;8.90;99.90
34829;DHT22;21042;47.620;12.188;2023-04-24T05:36:58;9.00;99.90
34829;DHT22;21042;47.620;12.188;2023-04-24T05:39:25;9.00;99.90
34829;DHT22;21042;47.620;12.188;2023-04-24T05:41:53;9.00;99.90
34829;DHT22;21042;47.620;12.188;2023-04-24T05:44:20;9.10;99.90
34829;DHT22;21042;47.620;12.188;2023-04-24T05:46:47;9.10;99.90
34829;DHT22;21042;47.620;12.188;2023-04-24T05:49:14;9.00;99.90
34829;DHT22;21042;47.620;12.188;2023-04-24T05:51:42;9.00;99.90
34829;DHT22;21042;47.620;12.188;2023-04-24T05:54:09;9.00;99.90
34829;DHT22;21042;47.620;12.188;2023-04-24T05:56:39;9.00;99.90
34829;DHT22;21042;47.620;12.188;2023-04-24T05:59:11;9.10;99.90
34829;DHT22;21042;47.620;12.188;2023-04-24T06:01:38;9.10;99.90
34829;DHT22;21042;47.620;12.188;2023-04-24T06:04:11;9.20;99.90
34829;DHT22;21042;47.620;12.188;2023-04-24T06:06:40;9.20;99.90
34829;DHT22;21042;47.620;12.188;2023-04-24T06:09:07;9.30;99.90
34829;DHT22;21042;47.620;12.188;2023-04-24T06:11:34;9.30;99.90
34829;DHT22;21042;47.620;12.188;2023-04-24T06:14:02;9.40;99.90
34829;DHT22;21042;47.620;12.188;2023-04-24T06:16:57;9.40;99.90
34829;DHT22;21042;47.620;12.188;2023-04-24T06:19:34;9.50;99.90
34829;DHT22;21042;47.620;12.188;2023-04-24T06:22:01;9.50;99.90
34829;DHT22;21042;47.620;12.188;2023-04-24T06:24:28;9.60;99.90
34829;DHT22;21042;47.620;12.188;2023-04-24T06:26:55;9.70;99.90
34829;DHT22;21042;47.620;12.188;2023-04-24T06:29:23;9.70;99.90
34829;DHT22;21042;47.620;12.188;2023-04-24T06:31:50;9.70;99.90
34829;DHT22;21042;47.620;12.188;2023-04-24T06:34:17;9.80;99.90
34829;DHT22;21042;47.620;12.188;2023-04-24T06:36:43;9.90;99.90
34829;DHT22;21042;47.620;12.188;2023-04-24T06:39:10;10.10;99.90
34829;DHT22;21042;47.620;12.188;2023-04-24T06:41:37;10.20;99.90
34829;DHT22;21042;47.620;12.188;2023-04-24T06:44:04;10.30;99.90
34829;DHT22;21042;47.620;12.188;2023-04-24T06:46:30;10.40;99.90
34829;DHT22;21042;47.620;12.188;2023-04-24T06:48:57;10.40;99.90
34829;DHT22;21042;47.620;12.188;2023-04-24T06:51:25;10.40;99.90
34829;DHT22;21042;47.620;12.188;2023-04-24T06:53:53;10.40;99.90
34829;DHT22;21042;47.620;12.188;2023-04-24T06:56:20;10.40;99.90
34829;DHT22;21042;47.620;12.188;2023-04-24T06:58:47;10.40;99.90
34829;DHT22;21042;47.620;12.188;2023-04-24T07:01:14;10.40;99.90
34829;DHT22;21042;47.620;12.188;2023-04-24T07:03:41;10.30;99.90
34829;DHT22;21042;47.620;12.188;2023-04-24T07:06:09;10.30;99.90
34829;DHT22;21042;47.620;12.188;2023-04-24T07:08:39;10.20;99.90
34829;DHT22;21042;47.620;12.188;2023-04-24T07:11:06;10.10;99.90
34829;DHT22;21042;47.620;12.188;2023-04-24T07:13:33;10.10;99.90
34829;DHT22;21042;47.620;12.188;2023-04-24T07:16:01;10.10;99.90
34829;DHT22;21042;47.620;12.188;2023-04-24T07:18:28;10.10;99.90
34829;DHT22;21042;47.620;12.188;2023-04-24T07:20:55;10.00;99.90
34829;DHT22;21042;47.620;12.188;2023-04-24T07:23:22;10.00;99.90
34829;DHT22;21042;47.620;12.188;2023-04-24T07:25:49;10.00;99.90
34829;DHT22;21042;47.620;12.188;2023-04-24T07:28:16;9.80;99.90
34829;DHT22;21042;47.620;12.188;2023-04-24T07:30:44;10.00;99.90
34829;DHT22;21042;47.620;12.188;2023-04-24T07:33:11;10.00;99.90
34829;DHT22;21042;47.620;12.188;2023-04-24T07:35:39;10.00;99.90
34829;DHT22;21042;47.620;12.188;2023-04-24T07:38:06;10.10;99.90
34829;DHT22;21042;47.620;12.188;2023-04-24T07:40:33;10.10;99.90
34829;DHT22;21042;47.620;12.188;2023-04-24T07:43:00;10.00;99.90
34829;DHT22;21042;47.620;12.188;2023-04-24T07:45:26;10.10;99.90
34829;DHT22;21042;47.620;12.188;2023-04-24T07:47:54;10.00;99.90
34829;DHT22;21042;47.620;12.188;2023-04-24T07:50:21;10.10;99.90
34829;DHT22;21042;47.620;12.188;2023-04-24T07:52:48;10.20;99.90
34829;DHT22;21042;47.620;12.188;2023-04-24T07:55:15;10.20;99.90
34829;DHT22;21042;47.620;12.188;2023-04-24T07:57:42;10.00;99.90
34829;DHT22;21042;47.620;12.188;2023-04-24T08:00:09;9.90;99.90
34829;DHT22;21042;47.620;12.188;2023-04-24T08:02:39;10.00;99.90
34829;DHT22;21042;47.620;12.188;2023-04-24T08:05:06;9.90;99.90
34829;DHT22;21042;47.620;12.188;2023-04-24T08:07:34;9.80;99.90
34829;DHT22;21042;47.620;12.188;2023-04-24T08:10:02;9.80;99.90
34829;DHT22;21042;47.620;12.188;2023-04-24T08:12:29;9.80;99.90
34829;DHT22;21042;47.620;12.188;2023-04-24T08:14:56;9.90;99.90
34829;DHT22;21042;47.620;12.188;2023-04-24T08:17:23;10.00;99.90
34829;DHT22;21042;47.620;12.188;2023-04-24T08:19:50;10.10;99.90
34829;DHT22;21042;47.620;12.188;2023-04-24T08:22:17;10.00;99.90
34829;DHT22;21042;47.620;12.188;2023-04-24T08:24:44;10.20;99.90
34829;DHT22;21042;47.620;12.188;2023-04-24T08:27:11;10.20;99.90
34829;DHT22;21042;47.620;12.188;2023-04-24T08:29:37;10.10;99.90
34829;DHT22;21042;47.620;12.188;2023-04-24T08:32:04;10.00;99.90
34829;DHT22;21042;47.620;12.188;2023-04-24T08:34:31;10.00;99.90
34829;DHT22;21042;47.620;12.188;2023-04-24T08:36:57;10.00;99.90
34829;DHT22;21042;47.620;12.188;2023-04-24T08:39:24;9.90;99.90
34829;DHT22;21042;47.620;12.188;2023-04-24T08:41:52;9.90;99.90
34829;DHT22;21042;47.620;12.188;2023-04-24T08:44:19;9.80;99.90
34829;DHT22;21042;47.620;12.188;2023-04-24T08:46:48;9.90;99.90
34829;DHT22;21042;47.620;12.188;2023-04-24T08:49:15;9.90;99.90
34829;DHT22;21042;47.620;12.188;2023-04-24T08:51:45;9.90;99.90
34829;DHT22;21042;47.620;12.188;2023-04-24T08:54:13;9.90;99.90
34829;DHT22;21042;47.620;12.188;2023-04-24T08:56:43;10.00;99.90
34829;DHT22;21042;47.620;12.188;2023-04-24T08:59:11;10.00;99.90
34829;DHT22;21042;47.620;12.188;2023-04-24T09:01:40;10.10;99.90
34829;DHT22;21042;47.620;12.188;2023-04-24T09:04:09;10.20;99.90
34829;DHT22;21042;47.620;12.188;2023-04-24T09:06:40;10.30;99.90
34829;DHT22;21042;47.620;12.188;2023-04-24T09:09:07;10.40;99.90
34829;DHT22;21042;47.620;12.188;2023-04-24T09:11:34;10.40;99.90
34829;DHT22;21042;47.620;12.188;2023-04-24T09:14:01;10.40;99.90
34829;DHT22;21042;47.620;12.188;2023-04-24T09:16:28;10.30;99.90
34829;DHT22;21042;47.620;12.188;2023-04-24T09:18:56;10.20;99.90
34829;DHT22;21042;47.620;12.188;2023-04-24T09:21:22;10.40;99.90
34829;DHT22;21042;47.620;12.188;2023-04-24T09:24:01;10.40;99.90
34829;DHT22;21042;47.620;12.188;2023-04-24T09:26:30;10.50;99.90
34829;DHT22;21042;47.620;12.188;2023-04-24T09:29:00;10.50;99.90
34829;DHT22;21042;47.620;12.188;2023-04-24T09:31:28;10.50;99.90
34829;DHT22;21042;47.620;12.188;2023-04-24T09:34:01;10.50;99.90
34829;DHT22;21042;47.620;12.188;2023-04-24T09:36:37;10.20;99.90
34829;DHT22;21042;47.620;12.188;2023-04-24T09:39:06;9.90;99.90
34829;DHT22;21042;47.620;12.188;2023-04-24T09:41:35;9.90;99.90
34829;DHT22;21042;47.620;12.188;2023-04-24T09:44:34;9.90;99.90
34829;DHT22;21042;47.620;12.188;2023-04-24T09:47:00;10.00;99.90
34829;DHT22;21042;47.620;12.188;2023-04-24T09:49:29;10.20;99.90
34829;DHT22;21042;47.620;12.188;2023-04-24T09:52:22;10.30;99.90
34829;DHT22;21042;47.620;12.188;2023-04-24T09:54:54;10.40;99.90
34829;DHT22;21042;47.620;12.188;2023-04-24T09:57:24;10.70;99.90
34829;DHT22;21042;47.620;12.188;2023-04-24T09:59:53;11.00;99.90
34829;DHT22;21042;47.620;12.188;2023-04-24T10:02:20;11.30;99.90
34829;DHT22;21042;47.620;12.188;2023-04-24T10:04:57;11.70;99.90
34829;DHT22;21042;47.620;12.188;2023-04-24T10:07:26;11.90;99.90
34829;DHT22;21042;47.620;12.188;2023-04-24T10:10:25;11.70;99.90
34829;DHT22;21042;47.620;12.188;2023-04-24T10:12:52;11.70;99.90
34829;DHT22;21042;47.620;12.188;2023-04-24T10:15:20;11.80;99.90
34829;DHT22;21042;47.620;12.188;2023-04-24T10:17:49;11.80;99.90
34829;DHT22;21042;47.620;12.188;2023-04-24T10:20:24;11.90;99.90
34829;DHT22;21042;47.620;12.188;2023-04-24T10:22:53;12.00;99.90
34829;DHT22;21042;47.620;12.188;2023-04-24T10:25:25;12.00;99.90
34829;DHT22;21042;47.620;12.188;2023-04-24T10:27:53;12.20;99.90
34829;DHT22;21042;47.620;12.188;2023-04-24T10:30:20;12.10;99.90
34829;DHT22;21042;47.620;12.188;2023-04-24T10:32:46;12.10;99.90
34829;DHT22;21042;47.620;12.188;2023-04-24T10:35:14;12.20;99.90
34829;DHT22;21042;47.620;12.188;2023-04-24T10:37:45;12.20;99.90
34829;DHT22;21042;47.620;12.188;2023-04-24T10:40:18;12.20;99.90
34829;DHT22;21042;47.620;12.188;2023-04-24T10:42:51;12.40;99.90
34829;DHT22;21042;47.620;12.188;2023-04-24T10:45:19;12.60;99.90
34829;DHT22;21042;47.620;12.188;2023-04-24T10:48:06;12.70;99.90
34829;DHT22;21042;47.620;12.188;2023-04-24T10:50:46;13.10;99.90
34829;DHT22;21042;47.620;12.188;2023-04-24T10:53:21;13.20;99.90
34829;DHT22;21042;47.620;12.188;2023-04-24T10:56:07;13.50;99.90
34829;DHT22;21042;47.620;12.188;2023-04-24T11:01:07;13.70;99.90
34829;DHT22;21042;47.620;12.188;2023-04-24T11:03:35;13.90;99.90
34829;DHT22;21042;47.620;12.188;2023-04-24T11:06:03;14.10;99.90
34829;DHT22;21042;47.620;12.188;2023-04-24T11:11:13;14.30;99.90
34829;DHT22;21042;47.620;12.188;2023-04-24T11:16:40;14.50;99.90
34829;DHT22;21042;47.620;12.188;2023-04-24T11:21:48;14.50;99.90
34829;DHT22;21042;47.620;12.188;2023-04-24T11:24:26;14.70;99.90
34829;DHT22;21042;47.620;12.188;2023-04-24T11:26:59;14.60;99.90
34829;DHT22;21042;47.620;12.188;2023-04-24T11:32:50;14.20;99.90
34829;DHT22;21042;47.620;12.188;2023-04-24T11:35:21;14.00;99.90
34829;DHT22;21042;47.620;12.188;2023-04-24T11:37:54;14.00;99.90
34829;DHT22;21042;47.620;12.188;2023-04-24T11:40:38;14.10;99.90
34829;DHT22;21042;47.620;12.188;2023-04-24T11:43:06;14.20;99.90
34829;DHT22;21042;47.620;12.188;2023-04-24T11:45:33;14.30;99.90
34829;DHT22;21042;47.620;12.188;2023-04-24T11:48:02;14.50;99.90
34829;DHT22;21042;47.620;12.188;2023-04-24T11:50:29;14.60;99.90
34829;DHT22;21042;47.620;12.188;2023-04-24T11:52:56;14.60;99.90
34829;DHT22;21042;47.620;12.188;2023-04-24T11:55:25;14.50;99.90
34829;DHT22;21042;47.620;12.188;2023-04-24T11:57:57;14.60;99.90
34829;DHT22;21042;47.620;12.188;2023-04-24T12:00:30;14.60;99.90
34829;DHT22;21042;47.620;12.188;2023-04-24T12:03:08;14.40;99.90
34829;DHT22;21042;47.620;12.188;2023-04-24T12:05:36;14.30;99.90
34829;DHT22;21042;47.620;12.188;2023-04-24T12:08:03;14.00;99.90
34829;DHT22;21042;47.620;12.188;2023-04-24T12:10:32;13.80;99.90
34829;DHT22;21042;47.620;12.188;2023-04-24T12:12:59;13.70;99.90
34829;DHT22;21042;47.620;12.188;2023-04-24T12:15:27;13.60;99.90
34829;DHT22;21042;47.620;12.188;2023-04-24T12:17:55;13.60;99.90
34829;DHT22;21042;47.620;12.188;2023-04-24T12:20:28;13.60;99.90
34829;DHT22;21042;47.620;12.188;2023-04-24T12:22:57;13.60;99.90
34829;DHT22;21042;47.620;12.188;2023-04-24T12:25:29;13.60;99.90
34829;DHT22;21042;47.620;12.188;2023-04-24T12:28:16;13.50;99.90
34829;DHT22;21042;47.620;12.188;2023-04-24T12:30:44;13.60;99.90
34829;DHT22;21042;47.620;12.188;2023-04-24T12:33:21;13.70;99.90
34829;DHT22;21042;47.620;12.188;2023-04-24T12:35:51;13.90;99.90
34829;DHT22;21042;47.620;12.188;2023-04-24T12:38:22;13.90;99.90
34829;DHT22;21042;47.620;12.188;2023-04-24T12:41:08;14.00;99.90
34829;DHT22;21042;47.620;12.188;2023-04-24T12:43:35;14.10;99.90
34829;DHT22;21042;47.620;12.188;2023-04-24T12:46:02;14.30;99.90
34829;DHT22;21042;47.620;12.188;2023-04-24T12:48:29;14.30;99.90
34829;DHT22;21042;47.620;12.188;2023-04-24T12:50:58;14.40;99.90
34829;DHT22;21042;47.620;12.188;2023-04-24T12:53:28;14.60;99.90
34829;DHT22;21042;47.620;12.188;2023-04-24T12:55:58;14.50;99.90
34829;DHT22;21042;47.620;12.188;2023-04-24T12:58:25;14.60;99.90
34829;DHT22;21042;47.620;12.188;2023-04-24T13:00:51;14.60;99.90
34829;DHT22;21042;47.620;12.188;2023-04-24T13:03:18;14.70;99.90
34829;DHT22;21042;47.620;12.188;2023-04-24T13:05:46;14.70;99.90
34829;DHT22;21042;47.620;12.188;2023-04-24T13:08:12;14.70;99.90
34829;DHT22;21042;47.620;12.188;2023-04-24T13:10:40;14.50;99.90
34829;DHT22;21042;47.620;12.188;2023-04-24T13:13:07;14.80;99.90
34829;DHT22;21042;47.620;12.188;2023-04-24T13:15:34;14.70;99.90
34829;DHT22;21042;47.620;12.188;2023-04-24T13:18:01;14.70;99.90
34829;DHT22;21042;47.620;12.188;2023-04-24T13:20:28;14.60;99.90
34829;DHT22;21042;47.620;12.188;2023-04-24T13:22:55;14.70;99.90
34829;DHT22;21042;47.620;12.188;2023-04-24T13:25:22;14.60;99.90
34829;DHT22;21042;47.620;12.188;2023-04-24T13:27:50;14.70;99.90
34829;DHT22;21042;47.620;12.188;2023-04-24T13:30:17;14.70;99.90
34829;DHT22;21042;47.620;12.188;2023-04-24T13:32:44;14.80;99.90
34829;DHT22;21042;47.620;12.188;2023-04-24T13:35:10;14.90;99.90
34829;DHT22;21042;47.620;12.188;2023-04-24T13:37:37;14.90;99.90
34829;DHT22;21042;47.620;12.188;2023-04-24T13:40:04;14.90;99.90
34829;DHT22;21042;47.620;12.188;2023-04-24T13:42:32;14.70;99.90
34829;DHT22;21042;47.620;12.188;2023-04-24T13:44:59;14.80;99.90
34829;DHT22;21042;47.620;12.188;2023-04-24T13:47:29;15.20;99.90
34829;DHT22;21042;47.620;12.188;2023-04-24T13:49:56;15.10;99.90
34829;DHT22;21042;47.620;12.188;2023-04-24T13:52:22;15.20;99.90
34829;DHT22;21042;47.620;12.188;2023-04-24T13:54:49;15.30;99.90
34829;DHT22;21042;47.620;12.188;2023-04-24T13:57:16;15.10;99.90
34829;DHT22;21042;47.620;12.188;2023-04-24T13:59:43;15.10;99.90
34829;DHT22;21042;47.620;12.188;2023-04-24T14:02:10;15.10;99.90
34829;DHT22;21042;47.620;12.188;2023-04-24T14:04:37;15.20;99.90
34829;DHT22;21042;47.620;12.188;2023-04-24T14:07:04;15.10;99.90
34829;DHT22;21042;47.620;12.188;2023-04-24T14:09:30;14.90;99.80
34829;DHT22;21042;47.620;12.188;2023-04-24T14:11:57;14.90;99.90
34829;DHT22;21042;47.620;12.188;2023-04-24T14:14:24;14.80;99.90
34829;DHT22;21042;47.620;12.188;2023-04-24T14:16:50;14.90;98.90
34829;DHT22;21042;47.620;12.188;2023-04-24T14:19:17;14.90;99.90
34829;DHT22;21042;47.620;12.188;2023-04-24T14:21:44;14.90;99.90
34829;DHT22;21042;47.620;12.188;2023-04-24T14:24:11;14.80;99.90
34829;DHT22;21042;47.620;12.188;2023-04-24T14:26:37;14.60;99.90
34829;DHT22;21042;47.620;12.188;2023-04-24T14:29:04;14.60;99.50
34829;DHT22;21042;47.620;12.188;2023-04-24T14:31:40;14.50;97.50
34829;DHT22;21042;47.620;12.188;2023-04-24T14:34:07;14.80;99.20
34829;DHT22;21042;47.620;12.188;2023-04-24T14:36:34;15.10;98.00
34829;DHT22;21042;47.620;12.188;2023-04-24T14:39:01;15.30;97.80
34829;DHT22;21042;47.620;12.188;2023-04-24T14:41:33;15.10;97.30
34829;DHT22;21042;47.620;12.188;2023-04-24T14:44:03;15.20;96.90
34829;DHT22;21042;47.620;12.188;2023-04-24T14:46:29;15.40;97.40
34829;DHT22;21042;47.620;12.188;2023-04-24T14:48:59;15.50;97.50
34829;DHT22;21042;47.620;12.188;2023-04-24T14:51:26;15.70;96.40
34829;DHT22;21042;47.620;12.188;2023-04-24T14:53:53;15.70;95.60
34829;DHT22;21042;47.620;12.188;2023-04-24T14:56:20;15.60;96.50
34829;DHT22;21042;47.620;12.188;2023-04-24T14:58:46;15.60;96.90
34829;DHT22;21042;47.620;12.188;2023-04-24T15:01:13;15.60;97.90
34829;DHT22;21042;47.620;12.188;2023-04-24T15:03:41;15.80;95.80
34829;DHT22;21042;47.620;12.188;2023-04-24T15:06:08;16.10;95.10
34829;DHT22;21042;47.620;12.188;2023-04-24T15:08:35;16.10;95.00
34829;DHT22;21042;47.620;12.188;2023-04-24T15:11:02;16.00;94.90
34829;DHT22;21042;47.620;12.188;2023-04-24T15:13:28;16.10;92.80
34829;DHT22;21042;47.620;12.188;2023-04-24T15:15:55;16.40;93.60
34829;DHT22;21042;47.620;12.188;2023-04-24T15:18:22;16.30;92.80
34829;DHT22;21042;47.620;12.188;2023-04-24T15:20:49;16.20;90.30
34829;DHT22;21042;47.620;12.188;2023-04-24T15:23:16;15.70;85.40
34829;DHT22;21042;47.620;12.188;2023-04-24T15:25:42;15.70;91.40
34829;DHT22;21042;47.620;12.188;2023-04-24T15:28:09;15.60;88.70
34829;DHT22;21042;47.620;12.188;2023-04-24T15:30:36;15.40;89.80
34829;DHT22;21042;47.620;12.188;2023-04-24T15:33:03;15.20;90.00
34829;DHT22;21042;47.620;12.188;2023-04-24T15:35:30;15.00;90.50
34829;DHT22;21042;47.620;12.188;2023-04-24T15:37:56;14.80;91.30
34829;DHT22;21042;47.620;12.188;2023-04-24T15:40:23;14.30;92.10
34829;DHT22;21042;47.620;12.188;2023-04-24T15:42:50;14.00;91.10
34829;DHT22;21042;47.620;12.188;2023-04-24T15:45:17;14.00;91.10
34829;DHT22;21042;47.620;12.188;2023-04-24T15:47:44;14.00;91.00